Time;durP1;ratioP1;P1;durP2;ratioP2;P2;SDS_P1;SDS_P2;PMS_P1;PMS_P2;Temp;Humidity;BMP_temperature;BMP_pressure;BME280_temperature;BME280_humidity;BME280_pressure;Samples;Min_cycle;Max_cycle;Signal;HPM_P1;HPM_P2
2021/06/28 00:00:32;;;;;;;8.07;5.50;;;17.50;99.90;;;;;;5121267;27;20439;-84
2021/06/28 00:02:59;;;;;;;7.50;4.70;;;17.50;99.90;;;;;;5122094;28;20406;-82
2021/06/28 00:05:25;;;;;;;7.90;4.77;;;17.40;99.90;;;;;;5122908;27;20172;-87
2021/06/28 00:07:52;;;;;;;5.60;4.53;;;17.40;99.90;;;;;;5124281;27;20414;-88
2021/06/28 00:10:23;;;;;;;7.57;5.50;;;17.40;99.90;;;;;;5124705;27;20516;-81
2021/06/28 00:12:50;;;;;;;5.93;5.10;;;17.40;99.90;;;;;;5126425;27;20462;-80
2021/06/28 00:15:19;;;;;;;6.30;5.70;;;17.40;99.90;;;;;;5120300;27;20462;-81
2021/06/28 00:17:46;;;;;;;6.97;6.37;;;17.40;99.90;;;;;;5117263;28;20440;-81
2021/06/28 00:20:12;;;;;;;7.30;5.20;;;17.30;99.90;;;;;;5115745;27;21013;-80
2021/06/28 00:22:39;;;;;;;6.87;5.80;;;17.30;99.90;;;;;;5115995;28;20829;-81
2021/06/28 00:25:09;;;;;;;6.73;5.67;;;17.30;99.90;;;;;;5115956;28;20426;-83
2021/06/28 00:27:36;;;;;;;6.60;5.97;;;17.30;99.90;;;;;;5116319;28;20429;-80
2021/06/28 00:30:06;;;;;;;6.47;5.83;;;17.20;99.90;;;;;;5117000;28;20428;-80
2021/06/28 00:32:32;;;;;;;6.30;4.67;;;17.20;99.90;;;;;;5117247;28;20402;-80
2021/06/28 00:34:57;;;;;;;6.90;5.60;;;17.10;99.90;;;;;;5115467;28;20462;-81
2021/06/28 00:37:23;;;;;;;7.67;6.50;;;17.10;99.90;;;;;;5115925;28;20185;-81
2021/06/28 00:39:48;;;;;;;5.90;5.30;;;17.00;99.90;;;;;;5117069;28;20168;-80
2021/06/28 00:42:14;;;;;;;5.97;5.37;;;17.00;99.90;;;;;;5117061;28;20698;-82
2021/06/28 00:44:40;;;;;;;7.97;7.17;;;17.00;99.90;;;;;;5115468;28;20184;-80
2021/06/28 00:47:06;;;;;;;6.20;5.60;;;17.00;99.90;;;;;;5116966;28;20678;-80
2021/06/28 00:49:31;;;;;;;6.50;5.90;;;16.90;99.90;;;;;;5115550;28;20492;-81
2021/06/28 00:51:58;;;;;;;6.57;5.90;;;16.80;99.90;;;;;;5115786;27;20526;-80
2021/06/28 00:54:24;;;;;;;6.50;5.80;;;16.90;99.90;;;;;;5116692;28;20163;-80
2021/06/28 00:56:51;;;;;;;6.70;6.00;;;16.80;99.90;;;;;;5114628;27;20523;-81
2021/06/28 00:59:17;;;;;;;6.33;5.43;;;16.80;99.90;;;;;;5116636;28;20474;-89
2021/06/28 01:01:43;;;;;;;6.67;5.97;;;16.70;99.90;;;;;;5115207;28;20436;-80
2021/06/28 01:04:08;;;;;;;7.67;6.37;;;16.80;99.90;;;;;;5116492;28;20925;-81
2021/06/28 01:06:34;;;;;;;6.97;6.07;;;16.70;99.90;;;;;;5114999;28;20192;-80
2021/06/28 01:09:00;;;;;;;7.57;6.40;;;16.60;99.90;;;;;;5115096;28;20217;-81
2021/06/28 01:11:26;;;;;;;7.93;6.20;;;16.70;99.90;;;;;;5114928;28;20502;-80
2021/06/28 01:13:52;;;;;;;7.00;6.30;;;16.60;99.90;;;;;;5115215;28;20200;-80
2021/06/28 01:16:18;;;;;;;7.17;5.67;;;16.60;99.90;;;;;;5116095;28;20563;-80
2021/06/28 01:18:44;;;;;;;7.87;5.53;;;16.50;99.90;;;;;;5116437;28;20406;-80
2021/06/28 01:21:11;;;;;;;7.93;7.10;;;16.50;99.90;;;;;;5113786;28;20777;-80
2021/06/28 01:23:38;;;;;;;6.40;5.80;;;16.50;99.90;;;;;;5115168;28;20660;-80
2021/06/28 01:26:09;;;;;;;8.23;7.00;;;16.50;99.90;;;;;;5114142;28;20421;-83
2021/06/28 01:28:35;;;;;;;6.93;5.97;;;16.50;99.90;;;;;;5116177;28;20417;-82
2021/06/28 01:31:03;;;;;;;6.97;5.77;;;16.40;99.90;;;;;;5113596;28;20423;-83
2021/06/28 01:33:29;;;;;;;6.40;5.63;;;16.50;99.90;;;;;;5114732;28;20401;-80
2021/06/28 01:35:55;;;;;;;7.40;6.40;;;16.40;99.90;;;;;;5115499;28;20526;-85
2021/06/28 01:38:21;;;;;;;8.50;6.87;;;16.40;99.90;;;;;;5116320;28;20875;-80
2021/06/28 01:40:47;;;;;;;7.20;6.27;;;16.40;99.90;;;;;;5114735;28;20187;-80
2021/06/28 01:43:13;;;;;;;7.80;6.63;;;16.40;99.90;;;;;;5115945;28;20505;-84
2021/06/28 01:45:39;;;;;;;7.07;6.37;;;16.40;99.90;;;;;;5115614;28;20475;-80
2021/06/28 01:48:06;;;;;;;6.87;6.17;;;16.40;99.90;;;;;;5114505;28;20414;-81
2021/06/28 01:50:33;;;;;;;8.50;7.60;;;16.40;99.90;;;;;;5115382;28;20416;-80
2021/06/28 01:53:00;;;;;;;7.97;7.03;;;16.40;99.90;;;;;;5115436;28;20931;-88
2021/06/28 01:55:26;;;;;;;7.50;6.70;;;16.40;99.90;;;;;;5114262;28;20496;-81
2021/06/28 01:57:59;;;;;;;8.10;6.37;;;16.40;99.90;;;;;;5114309;28;20779;-83
2021/06/28 02:00:30;;;;;;;10.57;7.37;;;16.40;99.90;;;;;;5114013;28;20429;-82
2021/06/28 02:02:58;;;;;;;8.70;7.97;;;16.40;99.90;;;;;;5115266;27;20452;-80
2021/06/28 02:05:25;;;;;;;9.23;8.20;;;16.50;99.90;;;;;;5113820;28;20525;-86
2021/06/28 02:07:51;;;;;;;8.83;6.70;;;16.50;99.90;;;;;;5115462;28;20405;-79
2021/06/28 02:10:17;;;;;;;8.67;6.97;;;16.40;99.90;;;;;;5115114;28;20450;-80
2021/06/28 02:12:42;;;;;;;7.03;6.20;;;16.40;99.90;;;;;;5114857;28;20458;-80
2021/06/28 02:15:23;;;;;;;7.87;7.13;;;16.40;99.90;;;;;;5114888;28;20660;-80
2021/06/28 02:17:49;;;;;;;10.60;7.73;;;16.40;99.90;;;;;;5115096;28;20201;-80
2021/06/28 02:20:15;;;;;;;7.60;6.90;;;16.40;99.90;;;;;;5114610;27;20478;-80
2021/06/28 02:22:41;;;;;;;9.10;7.00;;;16.30;99.90;;;;;;5115047;28;20591;-80
2021/06/28 02:25:09;;;;;;;9.33;6.87;;;16.30;99.90;;;;;;5114405;27;20411;-81
2021/06/28 02:27:37;;;;;;;7.70;6.60;;;16.30;99.90;;;;;;5114915;28;20416;-80
2021/06/28 02:30:08;;;;;;;9.33;7.40;;;16.30;99.90;;;;;;5114330;27;20409;-80
2021/06/28 02:32:34;;;;;;;8.17;7.37;;;16.20;99.90;;;;;;5112460;28;20520;-81
2021/06/28 02:34:59;;;;;;;8.67;7.50;;;16.20;99.90;;;;;;5114372;28;20528;-81
2021/06/28 02:37:25;;;;;;;8.33;7.53;;;16.30;99.90;;;;;;5113679;28;20230;-80
2021/06/28 02:39:51;;;;;;;6.90;6.20;;;16.40;99.90;;;;;;5114774;28;20239;-80
2021/06/28 02:42:17;;;;;;;8.30;6.77;;;16.40;99.90;;;;;;5114742;28;20173;-84
2021/06/28 02:44:42;;;;;;;7.83;7.03;;;16.40;99.90;;;;;;5114503;28;20164;-80
2021/06/28 02:47:09;;;;;;;8.53;7.57;;;16.40;99.90;;;;;;5114583;28;20553;-81
2021/06/28 02:49:35;;;;;;;7.73;6.93;;;16.40;99.90;;;;;;5114345;28;20180;-80
2021/06/28 02:52:00;;;;;;;9.20;8.40;;;16.40;99.90;;;;;;5114386;28;20497;-80
2021/06/28 02:54:27;;;;;;;8.40;7.00;;;16.40;99.90;;;;;;5111841;28;20175;-81
2021/06/28 02:56:52;;;;;;;8.47;6.90;;;16.40;99.90;;;;;;5114341;28;20202;-83
2021/06/28 02:59:18;;;;;;;8.13;7.37;;;16.40;99.90;;;;;;5112927;28;20414;-79
2021/06/28 03:01:44;;;;;;;8.00;7.20;;;16.40;99.90;;;;;;5112645;28;20195;-79
2021/06/28 03:04:10;;;;;;;8.17;7.00;;;16.40;99.90;;;;;;5113997;28;20164;-80
2021/06/28 03:06:35;;;;;;;10.30;8.20;;;16.50;99.90;;;;;;5114025;28;20936;-81
2021/06/28 03:09:01;;;;;;;9.50;8.07;;;16.50;99.90;;;;;;5114094;28;20175;-80
2021/06/28 03:11:27;;;;;;;8.13;7.33;;;16.50;99.90;;;;;;5114007;28;20174;-80
2021/06/28 03:13:53;;;;;;;8.77;7.87;;;16.50;99.90;;;;;;5113982;28;20513;-80
2021/06/28 03:16:19;;;;;;;7.97;7.23;;;16.50;99.90;;;;;;5113577;28;20570;-81
2021/06/28 03:18:45;;;;;;;9.33;8.13;;;16.50;99.90;;;;;;5113930;28;20416;-81
2021/06/28 03:21:11;;;;;;;9.47;7.67;;;16.50;99.90;;;;;;5113511;28;20413;-79
2021/06/28 03:23:42;;;;;;;8.97;7.90;;;16.60;99.90;;;;;;5113871;28;20711;-82
2021/06/28 03:26:09;;;;;;;10.23;6.67;;;16.60;99.90;;;;;;5112608;28;20981;-82
2021/06/28 03:28:35;;;;;;;9.00;7.50;;;16.60;99.90;;;;;;5112124;28;20418;-85
2021/06/28 03:31:02;;;;;;;8.50;7.60;;;16.60;99.90;;;;;;5112511;28;20432;-83
2021/06/28 03:33:28;;;;;;;8.93;7.43;;;16.70;99.90;;;;;;5112448;28;20194;-86
2021/06/28 03:35:54;;;;;;;8.30;7.50;;;16.70;99.90;;;;;;5113285;28;20813;-82
2021/06/28 03:38:20;;;;;;;8.00;6.83;;;16.70;99.90;;;;;;5112373;28;20529;-83
2021/06/28 03:40:46;;;;;;;8.77;7.87;;;16.70;99.90;;;;;;5113775;28;20264;-81
2021/06/28 03:43:12;;;;;;;8.30;7.50;;;16.80;99.90;;;;;;5112108;28;20184;-80
2021/06/28 03:45:38;;;;;;;9.90;7.70;;;16.80;99.90;;;;;;5112080;28;20533;-80
2021/06/28 03:48:06;;;;;;;8.67;7.83;;;16.90;99.90;;;;;;5113458;28;20450;-81
2021/06/28 03:50:33;;;;;;;8.00;7.30;;;17.10;99.90;;;;;;5111919;28;20452;-81
2021/06/28 03:52:58;;;;;;;7.37;6.43;;;17.20;99.90;;;;;;5113329;28;20422;-80
2021/06/28 03:55:24;;;;;;;7.57;6.87;;;17.20;99.90;;;;;;5111942;28;20473;-80
2021/06/28 03:57:50;;;;;;;8.13;7.33;;;17.30;99.90;;;;;;5113443;28;20201;-81
2021/06/28 04:00:21;;;;;;;9.27;8.27;;;17.30;99.90;;;;;;5111376;28;20517;-84
2021/06/28 04:02:47;;;;;;;9.23;7.37;;;17.40;99.90;;;;;;5093363;28;20170;-81
2021/06/28 04:05:17;;;;;;;7.70;6.87;;;17.50;99.90;;;;;;5120749;28;20427;-80
2021/06/28 04:07:43;;;;;;;8.40;7.40;;;17.50;99.90;;;;;;5119325;28;20421;-80
2021/06/28 04:10:09;;;;;;;7.90;7.10;;;17.70;99.90;;;;;;5122743;28;20816;-80
2021/06/28 04:12:36;;;;;;;9.60;7.60;;;17.70;99.90;;;;;;5121428;28;20526;-80
2021/06/28 04:15:04;;;;;;;8.40;7.47;;;17.80;99.90;;;;;;5122596;27;20449;-80
2021/06/28 04:17:30;;;;;;;7.90;6.73;;;17.90;99.90;;;;;;5124269;28;20488;-80
2021/06/28 04:19:56;;;;;;;9.20;7.70;;;18.10;99.90;;;;;;5118910;28;20420;-80
2021/06/28 04:22:21;;;;;;;7.90;7.10;;;18.10;99.90;;;;;;5108194;28;20181;-80
2021/06/28 04:24:47;;;;;;;6.93;6.17;;;18.10;99.90;;;;;;5101335;28;20206;-80
2021/06/28 04:27:13;;;;;;;9.23;7.13;;;18.30;99.90;;;;;;5101270;28;20229;-80
2021/06/28 04:29:39;;;;;;;8.00;6.57;;;18.30;99.90;;;;;;5102700;28;20208;-80
2021/06/28 04:32:05;;;;;;;7.17;6.47;;;18.40;99.90;;;;;;5101185;28;20182;-80
2021/06/28 04:34:31;;;;;;;8.53;6.70;;;18.50;99.90;;;;;;5101236;28;20415;-80
2021/06/28 04:36:57;;;;;;;8.27;7.40;;;18.60;99.90;;;;;;5101294;28;20559;-80
2021/06/28 04:39:22;;;;;;;9.40;7.23;;;18.60;99.90;;;;;;5100578;28;20179;-80
2021/06/28 04:41:48;;;;;;;8.87;7.97;;;18.60;99.90;;;;;;5101850;28;20184;-80
2021/06/28 04:44:13;;;;;;;8.10;6.83;;;18.60;99.90;;;;;;5102210;28;20183;-80
2021/06/28 04:46:39;;;;;;;8.27;7.03;;;18.60;99.90;;;;;;5100148;28;20177;-80
2021/06/28 04:49:05;;;;;;;8.27;6.90;;;18.80;99.90;;;;;;5102062;28;20176;-80
2021/06/28 04:51:32;;;;;;;6.53;5.80;;;18.90;99.90;;;;;;5101719;28;20225;-80
2021/06/28 04:53:58;;;;;;;8.53;7.03;;;19.00;99.90;;;;;;5100288;28;20209;-80
2021/06/28 04:56:24;;;;;;;7.53;6.70;;;18.90;99.90;;;;;;5105171;28;21000;-80
2021/06/28 04:58:50;;;;;;;8.63;7.23;;;19.00;99.90;;;;;;5105183;28;20913;-80
2021/06/28 05:01:15;;;;;;;9.80;6.33;;;19.20;99.90;;;;;;5104537;28;20181;-80
2021/06/28 05:03:41;;;;;;;9.60;8.00;;;19.10;99.90;;;;;;5104947;28;20171;-80
2021/06/28 05:06:07;;;;;;;7.83;7.03;;;19.20;99.90;;;;;;5104333;28;20174;-80
2021/06/28 05:08:32;;;;;;;8.13;7.20;;;19.30;99.90;;;;;;5104760;28;20636;-80
2021/06/28 05:10:58;;;;;;;7.83;7.07;;;19.40;99.90;;;;;;5105560;28;20255;-80
2021/06/28 05:13:23;;;;;;;7.57;6.87;;;19.50;99.90;;;;;;5103603;28;20230;-80
2021/06/28 05:15:49;;;;;;;8.73;7.60;;;19.60;99.90;;;;;;5103696;28;20352;-80
2021/06/28 05:18:14;;;;;;;8.50;7.40;;;19.80;99.90;;;;;;5105598;28;20201;-81
2021/06/28 05:20:40;;;;;;;10.30;7.40;;;19.80;99.90;;;;;;5102125;28;20227;-80
2021/06/28 05:23:06;;;;;;;8.10;6.57;;;19.90;99.90;;;;;;5105497;28;20169;-80
2021/06/28 05:25:31;;;;;;;8.13;7.37;;;20.10;99.90;;;;;;5104992;28;20181;-80
2021/06/28 05:27:58;;;;;;;7.80;7.10;;;20.10;99.90;;;;;;5103756;28;20175;-80
2021/06/28 05:30:24;;;;;;;6.93;6.20;;;20.30;99.90;;;;;;5097680;28;20270;-80
2021/06/28 05:32:50;;;;;;;7.47;6.80;;;20.40;99.90;;;;;;5095031;28;20984;-80
2021/06/28 05:35:15;;;;;;;8.27;5.80;;;20.80;99.90;;;;;;5095291;28;20472;-80
2021/06/28 05:37:41;;;;;;;7.47;5.60;;;20.90;99.90;;;;;;5095320;28;20257;-80
2021/06/28 05:40:08;;;;;;;8.87;7.00;;;21.20;99.90;;;;;;5095361;28;20171;-80
2021/06/28 05:42:35;;;;;;;8.00;6.17;;;21.40;99.90;;;;;;5095400;28;20183;-80
2021/06/28 05:45:00;;;;;;;7.57;6.03;;;21.30;99.90;;;;;;5095478;28;20431;-80
2021/06/28 05:47:26;;;;;;;8.03;7.23;;;21.40;99.90;;;;;;5095404;28;20998;-80
2021/06/28 05:49:52;;;;;;;8.13;6.57;;;21.40;95.30;;;;;;5095024;28;20274;-80
2021/06/28 05:52:20;;;;;;;7.90;6.17;;;21.80;99.90;;;;;;5095391;28;20167;-80
2021/06/28 05:54:48;;;;;;;6.70;5.90;;;21.90;57.90;;;;;;5093838;28;20677;-80
2021/06/28 05:57:14;;;;;;;7.67;6.87;;;21.80;54.20;;;;;;5095314;28;20402;-80
2021/06/28 05:59:40;;;;;;;7.13;6.43;;;21.80;99.90;;;;;;5095141;28;20406;-81
2021/06/28 06:02:05;;;;;;;7.10;6.40;;;21.60;99.90;;;;;;5095150;28;20407;-80
2021/06/28 06:04:31;;;;;;;6.23;5.63;;;22.00;99.90;;;;;;5094889;28;20170;-80
2021/06/28 06:06:58;;;;;;;8.73;5.63;;;22.30;16.60;;;;;;5094875;28;20210;-80
2021/06/28 06:09:24;;;;;;;6.13;5.43;;;22.70;32.40;;;;;;5094875;28;20183;-81
2021/06/28 06:11:50;;;;;;;7.93;6.70;;;22.70;16.40;;;;;;5094681;28;20467;-80
2021/06/28 06:14:16;;;;;;;6.43;5.50;;;22.60;22.90;;;;;;5094413;28;20415;-80
2021/06/28 06:16:42;;;;;;;6.77;5.27;;;22.60;40.90;;;;;;5093945;28;20203;-80
2021/06/28 06:19:07;;;;;;;5.77;5.03;;;22.90;7.00;;;;;;5094164;28;20404;-80
2021/06/28 06:21:33;;;;;;;5.10;4.60;;;23.20;1.00;;;;;;5094800;28;20246;-80
2021/06/28 06:23:59;;;;;;;6.60;6.00;;;23.00;1.00;;;;;;5094641;28;20295;-80
2021/06/28 06:26:25;;;;;;;8.13;5.83;;;22.70;1.00;;;;;;5094591;28;20415;-80
2021/06/28 06:28:51;;;;;;;6.10;5.60;;;22.60;1.00;;;;;;5093121;28;20538;-80
2021/06/28 06:31:19;;;;;;;7.53;5.77;;;22.80;8.30;;;;;;5094647;28;20542;-80
2021/06/28 06:33:45;;;;;;;5.83;5.30;;;23.50;1.00;;;;;;5094074;28;20508;-80
2021/06/28 06:36:10;;;;;;;9.33;7.00;;;23.80;1.00;;;;;;5094457;28;20560;-80
2021/06/28 06:38:36;;;;;;;7.57;5.83;;;24.10;13.00;;;;;;5094125;28;20166;-80
2021/06/28 06:41:03;;;;;;;6.33;5.40;;;24.40;1.00;;;;;;5094421;28;20697;-80
2021/06/28 06:43:28;;;;;;;6.63;5.03;;;24.50;1.00;;;;;;5094225;28;20174;-79
2021/06/28 06:45:54;;;;;;;5.00;4.60;;;24.30;1.00;;;;;;5094201;28;20420;-80
2021/06/28 06:48:19;;;;;;;6.97;4.97;;;24.80;1.00;;;;;;5093986;28;20177;-81
2021/06/28 06:50:45;;;;;;;4.70;4.30;;;25.00;1.00;;;;;;5093802;28;20174;-81
2021/06/28 06:53:11;;;;;;;6.53;5.10;;;25.10;1.00;;;;;;5093891;28;20219;-80
2021/06/28 06:55:36;;;;;;;7.67;5.37;;;25.50;1.00;;;;;;5094004;28;20325;-81
2021/06/28 06:58:08;;;;;;;5.10;4.70;;;25.70;99.90;;;;;;5093976;28;20283;-81
2021/06/28 07:00:35;;;;;;;5.27;4.10;;;25.80;99.90;;;;;;5093967;28;20658;-81
2021/06/28 07:03:00;;;;;;;4.90;4.50;;;27.40;1.00;;;;;;5093786;28;21021;-81
2021/06/28 07:05:26;;;;;;;5.67;4.97;;;29.60;99.90;;;;;;5093724;28;20509;-81
2021/06/28 07:07:52;;;;;;;5.00;4.60;;;29.80;1.00;;;;;;5092549;28;20536;-81
2021/06/28 07:10:18;;;;;;;5.70;3.80;;;30.30;1.00;;;;;;5093809;28;20182;-81
2021/06/28 07:12:44;;;;;;;4.30;3.90;;;29.60;99.90;;;;;;5093703;28;20237;-81
2021/06/28 07:15:12;;;;;;;4.40;3.70;;;30.40;99.90;;;;;;5093680;28;20450;-81
2021/06/28 07:17:38;;;;;;;3.90;3.50;;;31.20;99.90;;;;;;5091228;28;20433;-81
2021/06/28 07:20:09;;;;;;;4.87;4.10;;;31.80;99.90;;;;;;5093397;28;20410;-81
2021/06/28 07:22:35;;;;;;;3.97;3.50;;;32.10;99.90;;;;;;5092412;28;20168;-81
2021/06/28 07:25:01;;;;;;;3.67;2.90;;;31.60;99.90;;;;;;5093502;28;20411;-81
2021/06/28 07:27:26;;;;;;;3.83;3.50;;;30.10;99.90;;;;;;5093404;28;20659;-82
2021/06/28 07:29:52;;;;;;;4.33;4.03;;;28.90;99.90;;;;;;5092080;28;20656;-81
2021/06/28 07:32:18;;;;;;;5.00;4.60;;;28.00;99.90;;;;;;5093494;28;20695;-81
2021/06/28 07:34:43;;;;;;;4.67;4.10;;;27.60;99.90;;;;;;5092923;28;20176;-81
2021/06/28 07:37:09;;;;;;;3.90;3.53;;;27.70;16.60;;;;;;5093311;28;20208;-81
2021/06/28 07:39:35;;;;;;;4.73;4.30;;;27.50;1.00;;;;;;5093139;28;20165;-81
2021/06/28 07:42:00;;;;;;;4.80;4.33;;;27.90;99.90;;;;;;5091787;28;20172;-81
2021/06/28 07:44:26;;;;;;;4.83;3.80;;;27.90;10.50;;;;;;5093067;28;20172;-81
2021/06/28 07:46:52;;;;;;;4.30;3.97;;;28.30;99.90;;;;;;5092508;28;20274;-81
2021/06/28 07:49:18;;;;;;;4.57;4.20;;;27.40;99.90;;;;;;5092182;28;20187;-81
2021/06/28 07:51:43;;;;;;;4.43;4.03;;;26.40;1.00;;;;;;5092936;28;20422;-81
2021/06/28 07:54:10;;;;;;;4.50;4.10;;;26.20;1.00;;;;;;5093188;28;20172;-82
2021/06/28 07:56:36;;;;;;;5.20;4.70;;;26.70;1.00;;;;;;5091482;28;20304;-81
2021/06/28 07:59:02;;;;;;;4.37;4.00;;;26.50;1.00;;;;;;5090997;28;20490;-81
2021/06/28 08:01:31;;;;;;;5.43;4.43;;;26.50;99.90;;;;;;5091703;28;20263;-81
2021/06/28 08:03:57;;;;;;;9.00;4.43;;;26.50;97.30;;;;;;5092649;28;20811;-80
2021/06/28 08:06:23;;;;;;;5.47;4.83;;;27.20;99.90;;;;;;5091664;28;20426;-81
2021/06/28 08:08:51;;;;;;;5.90;4.53;;;27.70;1.00;;;;;;5092681;28;20429;-81
2021/06/28 08:11:18;;;;;;;4.00;3.60;;;27.40;1.00;;;;;;5092936;28;20190;-81
2021/06/28 08:13:46;;;;;;;4.30;3.63;;;28.00;99.90;;;;;;5091495;28;20506;-81
2021/06/28 08:16:17;;;;;;;7.43;4.13;;;28.60;1.00;;;;;;5092746;28;21055;-81
2021/06/28 08:18:44;;;;;;;4.70;4.30;;;29.30;99.90;;;;;;5091243;28;20445;-82
2021/06/28 08:21:10;;;;;;;4.50;4.20;;;30.40;99.90;;;;;;5091601;28;20426;-82
2021/06/28 08:23:35;;;;;;;3.80;3.50;;;31.10;99.90;;;;;;5092817;28;20422;-82
2021/06/28 08:26:01;;;;;;;5.57;3.67;;;32.30;99.90;;;;;;5092771;28;20972;-82
2021/06/28 08:28:26;;;;;;;4.07;3.60;;;31.20;99.90;;;;;;5091604;28;20301;-81
2021/06/28 08:30:52;;;;;;;5.17;3.20;;;32.00;99.90;;;;;;5094761;28;20241;-81
2021/06/28 08:33:18;;;;;;;3.83;3.53;;;32.10;99.90;;;;;;5096429;28;20193;-82
2021/06/28 08:35:44;;;;;;;3.13;2.83;;;32.80;99.90;;;;;;5096696;28;20223;-82
2021/06/28 08:38:10;;;;;;;3.87;3.50;;;32.80;99.90;;;;;;5096351;28;20169;-83
2021/06/28 08:40:37;;;;;;;4.83;3.90;;;33.00;99.90;;;;;;5096579;28;20189;-82
2021/06/28 08:43:04;;;;;;;3.87;3.37;;;31.70;99.90;;;;;;5096694;28;20417;-82
2021/06/28 08:45:35;;;;;;;3.80;3.50;;;30.00;99.90;;;;;;5096609;28;20426;-81
2021/06/28 08:48:02;;;;;;;3.57;3.33;;;30.00;99.90;;;;;;5096442;28;21002;-81
2021/06/28 08:50:28;;;;;;;4.93;3.53;;;30.90;99.90;;;;;;5095981;28;20406;-82
2021/06/28 08:52:54;;;;;;;3.97;3.67;;;32.00;99.90;;;;;;5096414;28;20455;-81
2021/06/28 08:55:20;;;;;;;3.80;3.50;;;31.70;99.90;;;;;;5096367;28;20196;-82
2021/06/28 08:57:45;;;;;;;4.27;3.80;;;32.60;99.90;;;;;;5096290;28;20418;-82
2021/06/28 09:00:13;;;;;;;4.00;3.37;;;32.20;99.90;;;;;;5096170;28;20200;-82
2021/06/28 09:03:08;;;;;;;5.03;4.00;;;33.30;99.90;;;;;;5096003;28;20175;-81
2021/06/28 09:05:49;;;;;;;3.73;2.60;;;32.60;99.90;;;;;;5094296;28;20414;-81
2021/06/28 09:08:17;;;;;;;4.07;3.67;;;33.20;99.90;;;;;;5096050;28;20437;-82
2021/06/28 09:10:44;;;;;;;2.90;2.70;;;33.70;99.90;;;;;;5094930;28;20930;-82
2021/06/28 09:13:10;;;;;;;4.50;4.07;;;33.40;99.90;;;;;;5095924;28;20462;-82
2021/06/28 09:15:37;;;;;;;3.83;3.53;;;33.00;84.90;;;;;;5096041;28;20466;-82
2021/06/28 09:18:22;;;;;;;4.03;3.73;;;33.20;75.30;;;;;;5095974;28;20411;-82
2021/06/28 09:20:50;;;;;;;3.60;3.30;;;33.80;99.90;;;;;;5095919;28;20433;-82
2021/06/28 09:23:24;;;;;;;3.77;3.10;;;33.40;72.70;;;;;;5095799;28;20493;-82
2021/06/28 09:25:53;;;;;;;4.60;3.53;;;34.20;89.60;;;;;;5078364;28;20474;-81
2021/06/28 09:28:39;;;;;;;3.50;3.20;;;34.10;70.90;;;;;;5104777;28;20416;-83
2021/06/28 09:31:05;;;;;;;3.73;3.33;;;34.40;47.70;;;;;;5101669;28;20425;-81
2021/06/28 09:33:30;;;;;;;3.83;3.37;;;34.40;43.30;;;;;;5094875;28;20769;-82
2021/06/28 09:35:57;;;;;;;3.50;3.20;;;34.10;30.50;;;;;;5095195;28;20268;-82
2021/06/28 09:38:30;;;;;;;4.20;3.83;;;33.20;25.00;;;;;;5095780;28;20256;-82
2021/06/28 09:40:55;;;;;;;3.87;3.20;;;33.50;31.60;;;;;;5095139;28;20751;-82
2021/06/28 09:43:25;;;;;;;3.83;2.70;;;33.40;28.20;;;;;;5095507;28;20455;-82
2021/06/28 09:45:55;;;;;;;3.83;3.30;;;34.30;37.10;;;;;;5095351;28;20179;-82
2021/06/28 09:48:31;;;;;;;3.67;3.10;;;34.30;36.20;;;;;;5093783;28;20533;-81
2021/06/28 09:51:16;;;;;;;3.43;3.10;;;34.70;40.80;;;;;;5097624;28;20808;-82
2021/06/28 09:53:42;;;;;;;3.67;3.47;;;35.00;24.50;;;;;;5095414;28;20813;-82
2021/06/28 09:56:26;;;;;;;3.27;3.07;;;34.70;20.10;;;;;;5094032;28;20474;-82
2021/06/28 09:58:52;;;;;;;4.00;3.60;;;35.00;17.50;;;;;;5094155;28;20546;-83
2021/06/28 10:01:23;;;;;;;3.80;3.00;;;34.40;14.50;;;;;;5094050;28;20431;-82
2021/06/28 10:03:51;;;;;;;3.70;3.40;;;34.40;8.10;;;;;;5094954;28;20630;-81
2021/06/28 10:09:00;;;;;;;4.17;3.33;;;33.30;2.10;;;;;;5095148;28;20423;-81
2021/06/28 10:11:27;;;;;;;3.93;2.87;;;33.40;8.20;;;;;;5093631;28;20426;-82
2021/06/28 10:14:02;;;;;;;5.67;3.60;;;33.60;5.20;;;;;;5095038;28;20780;-81
2021/06/28 10:16:30;;;;;;;3.10;2.80;;;33.50;5.50;;;;;;5094995;28;20554;-82
2021/06/28 10:18:57;;;;;;;3.53;3.23;;;34.00;7.20;;;;;;5094735;28;20740;-82
2021/06/28 10:21:24;;;;;;;3.03;2.83;;;34.10;5.00;;;;;;5094930;28;20489;-82
2021/06/28 10:23:50;;;;;;;3.77;2.83;;;34.00;3.30;;;;;;5094742;28;20434;-82
2021/06/28 10:26:16;;;;;;;3.90;3.23;;;34.50;3.10;;;;;;5094880;28;20429;-82
2021/06/28 10:28:43;;;;;;;2.90;2.70;;;34.10;1.00;;;;;;5094781;28;20406;-82
2021/06/28 10:31:10;;;;;;;5.63;3.50;;;33.50;1.00;;;;;;5094679;28;20218;-82
2021/06/28 10:33:37;;;;;;;3.03;2.83;;;33.70;5.80;;;;;;5094392;28;20442;-82
2021/06/28 10:36:09;;;;;;;2.70;2.50;;;34.30;14.50;;;;;;5094643;28;20474;-82
2021/06/28 10:38:54;;;;;;;3.47;2.80;;;34.40;6.40;;;;;;5094628;28;20406;-82
2021/06/28 10:41:43;;;;;;;3.50;2.70;;;34.50;5.00;;;;;;5094564;28;20414;-83
2021/06/28 10:44:12;;;;;;;3.37;3.10;;;33.80;2.20;;;;;;5094563;28;20411;-83
2021/06/28 10:46:39;;;;;;;3.67;3.37;;;33.90;1.00;;;;;;5094415;28;20434;-82
2021/06/28 10:49:06;;;;;;;3.00;2.70;;;32.90;1.00;;;;;;5094078;28;20419;-82
2021/06/28 10:51:47;;;;;;;3.60;2.33;;;32.90;1.00;;;;;;5094370;28;20919;-82
2021/06/28 10:54:18;;;;;;;3.10;2.90;;;33.00;1.00;;;;;;5093607;28;20411;-82
2021/06/28 10:56:54;;;;;;;3.20;3.00;;;33.20;1.00;;;;;;5094311;28;20487;-82
2021/06/28 10:59:22;;;;;;;2.93;2.73;;;34.00;1.00;;;;;;5093035;28;20413;-82
2021/06/28 11:01:54;;;;;;;2.40;2.20;;;34.60;1.40;;;;;;5094100;28;20914;-82
2021/06/28 11:04:30;;;;;;;2.53;2.40;;;33.80;1.00;;;;;;5093811;28;20410;-82
2021/06/28 11:06:59;;;;;;;5.13;2.80;;;34.50;1.00;;;;;;5094092;28;20807;-82
2021/06/28 11:09:44;;;;;;;3.60;3.40;;;34.80;1.00;;;;;;5094177;28;20449;-82
2021/06/28 11:12:21;;;;;;;2.83;2.63;;;34.90;1.00;;;;;;5093865;28;20470;-82
2021/06/28 11:14:56;;;;;;;10.57;3.10;;;34.10;1.00;;;;;;5093910;28;20505;-81
2021/06/28 11:17:37;;;;;;;2.70;2.50;;;33.20;1.00;;;;;;5093944;28;20432;-81
2021/06/28 11:20:06;;;;;;;1.90;1.80;;;32.80;1.00;;;;;;5093658;28;20410;-82
2021/06/28 11:22:34;;;;;;;3.23;3.00;;;32.70;1.00;;;;;;5093885;28;20811;-82
2021/06/28 11:25:09;;;;;;;3.47;2.47;;;32.70;1.00;;;;;;5092544;28;20483;-82
2021/06/28 11:28:10;;;;;;;2.37;2.27;;;32.40;1.00;;;;;;5092502;28;20441;-82
2021/06/28 11:30:45;;;;;;;2.93;2.67;;;32.40;1.00;;;;;;5085479;28;20418;-81
2021/06/28 11:33:13;;;;;;;4.33;2.60;;;32.00;1.00;;;;;;5092088;28;20422;-81
2021/06/28 11:35:52;;;;;;;2.80;2.60;;;32.40;1.00;;;;;;5093548;28;20465;-82
2021/06/28 11:38:17;;;;;;;2.37;2.17;;;33.40;1.00;;;;;;5092396;28;20419;-82
2021/06/28 11:40:51;;;;;;;2.63;2.43;;;33.60;1.00;;;;;;5093627;28;20411;-82
2021/06/28 11:43:40;;;;;;;3.40;2.10;;;33.80;1.00;;;;;;5093625;28;20516;-82
2021/06/28 11:46:12;;;;;;;3.60;3.17;;;33.60;1.00;;;;;;5091949;28;20415;-82
2021/06/28 11:48:39;;;;;;;2.53;2.33;;;32.80;1.00;;;;;;5091709;28;20411;-82
2021/06/28 11:51:41;;;;;;;3.30;2.10;;;32.30;1.00;;;;;;5093384;28;20408;-82
2021/06/28 11:54:10;;;;;;;2.67;2.40;;;32.80;1.00;;;;;;5092135;28;20443;-82
2021/06/28 11:56:42;;;;;;;3.20;2.27;;;32.70;1.00;;;;;;5093182;28;20470;-82
2021/06/28 11:59:08;;;;;;;3.57;3.27;;;31.80;1.00;;;;;;5093385;28;20395;-82
2021/06/28 12:01:37;;;;;;;2.83;2.60;;;31.80;1.00;;;;;;5091980;28;20425;-82
2021/06/28 12:04:05;;;;;;;2.67;2.47;;;32.10;1.00;;;;;;5091520;28;20410;-82
2021/06/28 12:06:38;;;;;;;3.70;2.60;;;32.40;1.00;;;;;;5093229;28;20418;-83
2021/06/28 12:09:08;;;;;;;2.57;2.30;;;32.20;1.00;;;;;;5093189;28;20404;-81
2021/06/28 12:11:55;;;;;;;3.00;2.80;;;33.20;1.00;;;;;;5091808;28;20437;-82
2021/06/28 12:14:33;;;;;;;3.20;2.90;;;33.60;1.00;;;;;;5091188;28;20430;-82
2021/06/28 12:17:00;;;;;;;2.50;2.30;;;34.40;1.00;;;;;;5093048;28;20488;-83
2021/06/28 12:19:26;;;;;;;2.40;2.20;;;34.60;1.00;;;;;;5092502;28;20772;-83
2021/06/28 12:21:52;;;;;;;3.00;2.70;;;34.90;1.00;;;;;;5091741;28;20414;-83
2021/06/28 12:24:19;;;;;;;2.67;2.47;;;35.10;1.00;;;;;;5092783;28;20199;-82
2021/06/28 12:27:05;;;;;;;2.40;2.20;;;35.00;1.00;;;;;;5093020;28;20172;-82
2021/06/28 12:29:37;;;;;;;3.03;2.47;;;34.80;1.00;;;;;;5092911;28;20406;-81
2021/06/28 12:32:12;;;;;;;2.73;2.53;;;34.70;1.00;;;;;;5092987;28;20416;-82
2021/06/28 12:34:44;;;;;;;2.57;2.37;;;34.70;1.00;;;;;;5092535;28;20406;-82
2021/06/28 12:37:09;;;;;;;2.50;2.30;;;34.60;1.00;;;;;;5092825;28;21004;-83
2021/06/28 12:39:35;;;;;;;2.57;2.33;;;34.70;1.00;;;;;;5091644;28;20418;-82
2021/06/28 12:42:22;;;;;;;1.90;1.80;;;34.90;1.00;;;;;;5091760;28;20169;-82
2021/06/28 12:44:48;;;;;;;2.93;2.23;;;33.90;1.00;;;;;;5092867;28;20179;-82
2021/06/28 12:47:17;;;;;;;2.90;2.00;;;34.30;1.00;;;;;;5092812;28;20513;-83
2021/06/28 12:49:44;;;;;;;2.40;2.20;;;34.50;1.00;;;;;;5092530;28;20414;-82
2021/06/28 12:52:33;;;;;;;3.27;2.03;;;33.90;1.00;;;;;;5091558;28;20414;-82
2021/06/28 12:55:07;;;;;;;2.53;2.10;;;34.40;1.00;;;;;;5092727;28;20411;-82
2021/06/28 12:57:35;;;;;;;2.77;2.57;;;34.30;1.00;;;;;;5092717;28;20608;-82